Time;durP1;ratioP1;P1;durP2;ratioP2;P2;SDS_P1;SDS_P2;PMS_P1;PMS_P2;Temp;Humidity;BMP_temperature;BMP_pressure;BME280_temperature;BME280_humidity;BME280_pressure;Samples;Min_cycle;Max_cycle;Signal;HPM_P1;HPM_P2
2022/03/02 00:02:08;;;;;;;;;;;;;;;;;;5071217;28;1918;-70
2022/03/02 00:04:36;;;;;;;;;;;;;;;;;;5071364;28;900;-68
2022/03/02 00:07:02;;;;;;;;;;;;;;;;;;5087367;28;1261;-69
2022/03/02 00:09:29;;;;;;;;;;;;;;;;;;5091927;28;1245;-68
2022/03/02 00:11:55;;;;;;;;;;;;;;;;;;5091307;28;952;-70
2022/03/02 00:14:21;;;;;;;;;;;;;;;;;;5091465;28;804;-70
2022/03/02 00:16:47;;;;;;;;;;;;;;;;;;5091310;28;1341;-69
2022/03/02 00:19:14;;;;;;;;;;;;;;;;;;5089732;28;1253;-70
2022/03/02 00:21:41;;;;;;;;;;;;;;;;;;5090982;28;1971;-70
2022/03/02 00:24:08;;;;;;;;;;;;;;;;;;5091202;28;707;-69
2022/03/02 00:26:34;;;;;;;;;;;;;;;;;;5091062;28;1275;-69
2022/03/02 00:29:01;;;;;;;;;;;;;;;;;;5091217;28;1097;-69
2022/03/02 00:31:27;;;;;;;;;;;;;;;;;;5089565;28;1301;-69
2022/03/02 00:33:53;;;;;;;;;;;;;;;;;;5091033;28;1083;-69
2022/03/02 00:36:20;;;;;;;;;;;;;;;;;;5090742;28;1347;-69
2022/03/02 00:38:47;;;;;;;;;;;;;;;;;;5090653;28;1067;-70
2022/03/02 00:41:13;;;;;;;;;;;;;;;;;;5089435;28;1114;-69
2022/03/02 00:43:40;;;;;;;;;;;;;;;;;;5090990;28;1965;-69
2022/03/02 00:46:06;;;;;;;;;;;;;;;;;;5089512;28;1370;-70
2022/03/02 00:48:32;;;;;;;;;;;;;;;;;;5091121;28;1018;-69
2022/03/02 00:50:59;;;;;;;;;;;;;;;;;;5090580;28;1148;-69
2022/03/02 00:53:25;;;;;;;;;;;;;;;;;;5090413;28;952;-70
2022/03/02 00:55:53;;;;;;;;;;;;;;;;;;5090816;28;1365;-69
2022/03/02 00:58:19;;;;;;;;;;;;;;;;;;5089489;28;1127;-68
2022/03/02 01:00:45;;;;;;;;;;;;;;;;;;5090537;28;1019;-69
2022/03/02 01:03:11;;;;;;;;;;;;;;;;;;5089361;28;1914;-69
2022/03/02 01:05:39;;;;;;;;;;;;;;;;;;5090735;28;1299;-68
2022/03/02 01:08:05;;;;;;;;;;;;;;;;;;5090509;28;865;-69
2022/03/02 01:10:32;;;;;;;;;;;;;;;;;;5089976;28;805;-69
2022/03/02 01:12:59;;;;;;;;;;;;;;;;;;5091033;28;1105;-70
2022/03/02 01:15:26;;;;;;;;;;;;;;;;;;5089192;28;1421;-69
2022/03/02 01:17:52;;;;;;;;;;;;;;;;;;5089334;28;2382;-69
2022/03/02 01:20:18;;;;;;;;;;;;;;;;;;5090676;28;1026;-69
2022/03/02 01:22:44;;;;;;;;;;;;;;;;;;5090623;28;1971;-70
2022/03/02 01:25:10;;;;;;;;;;;;;;;;;;5090819;28;1082;-69
2022/03/02 01:27:37;;;;;;;;;;;;;;;;;;5091114;28;868;-69
2022/03/02 01:30:05;;;;;;;;;;;;;;;;;;5091194;28;1070;-69
2022/03/02 01:32:32;;;;;;;;;;;;;;;;;;5090345;28;907;-69
2022/03/02 01:34:58;;;;;;;;;;;;;;;;;;5090522;28;960;-69
2022/03/02 01:37:25;;;;;;;;;;;;;;;;;;5090121;28;1391;-67
2022/03/02 01:39:51;;;;;;;;;;;;;;;;;;5088450;28;1257;-70
2022/03/02 01:42:18;;;;;;;;;;;;;;;;;;5090275;28;1917;-69
2022/03/02 01:44:44;;;;;;;;;;;;;;;;;;5089897;28;1070;-69
2022/03/02 01:47:11;;;;;;;;;;;;;;;;;;5090133;28;1277;-69
2022/03/02 01:49:38;;;;;;;;;;;;;;;;;;5093948;28;1090;-69
2022/03/02 01:52:04;;;;;;;;;;;;;;;;;;5083439;28;1527;-69
2022/03/02 01:54:30;;;;;;;;;;;;;;;;;;5073997;28;968;-69
2022/03/02 01:56:56;;;;;;;;;;;;;;;;;;5073728;28;1317;-69
2022/03/02 01:59:23;;;;;;;;;;;;;;;;;;5072276;28;1134;-68
2022/03/02 02:01:49;;;;;;;;;;;;;;;;;;5073781;28;1023;-69
2022/03/02 02:04:17;;;;;;;;;;;;;;;;;;5073605;28;1914;-69
2022/03/02 02:06:43;;;;;;;;;;;;;;;;;;5073469;28;1379;-69
2022/03/02 02:09:09;;;;;;;;;;;;;;;;;;5073325;28;738;-69
2022/03/02 02:11:35;;;;;;;;;;;;;;;;;;5073307;28;798;-70
2022/03/02 02:14:02;;;;;;;;;;;;;;;;;;5073671;28;881;-69
2022/03/02 02:16:28;;;;;;;;;;;;;;;;;;5073348;28;1365;-69
2022/03/02 02:18:54;;;;;;;;;;;;;;;;;;5073443;28;1234;-69
2022/03/02 02:21:22;;;;;;;;;;;;;;;;;;5072814;28;1111;-69
2022/03/02 02:23:50;;;;;;;;;;;;;;;;;;5073482;28;1988;-69
2022/03/02 02:26:16;;;;;;;;;;;;;;;;;;5073120;28;1354;-69
2022/03/02 02:28:42;;;;;;;;;;;;;;;;;;5073107;28;1074;-69
2022/03/02 02:31:08;;;;;;;;;;;;;;;;;;5073150;28;979;-69
2022/03/02 02:33:35;;;;;;;;;;;;;;;;;;5073126;28;1098;-69
2022/03/02 02:36:01;;;;;;;;;;;;;;;;;;5072962;28;1371;-69
2022/03/02 02:38:28;;;;;;;;;;;;;;;;;;5073001;28;900;-69
2022/03/02 02:40:55;;;;;;;;;;;;;;;;;;5072437;28;1074;-69
2022/03/02 02:43:22;;;;;;;;;;;;;;;;;;5072798;28;1965;-69
2022/03/02 02:45:48;;;;;;;;;;;;;;;;;;5072905;28;1277;-69
2022/03/02 02:48:14;;;;;;;;;;;;;;;;;;5072871;28;1153;-69
2022/03/02 02:50:41;;;;;;;;;;;;;;;;;;5072502;28;964;-70
2022/03/02 02:53:08;;;;;;;;;;;;;;;;;;5072895;28;786;-69
2022/03/02 02:55:35;;;;;;;;;;;;;;;;;;5072448;28;1293;-68
2022/03/02 02:58:01;;;;;;;;;;;;;;;;;;5072863;28;1046;-70
2022/03/02 03:00:28;;;;;;;;;;;;;;;;;;5072969;28;1117;-69
2022/03/02 03:02:55;;;;;;;;;;;;;;;;;;5073628;28;1911;-69
2022/03/02 03:05:22;;;;;;;;;;;;;;;;;;5070825;28;1332;-69
2022/03/02 03:07:48;;;;;;;;;;;;;;;;;;5071352;28;1234;-69
2022/03/02 03:10:15;;;;;;;;;;;;;;;;;;5071976;28;1086;-69
2022/03/02 03:12:43;;;;;;;;;;;;;;;;;;5072604;28;851;-69
2022/03/02 03:15:11;;;;;;;;;;;;;;;;;;5072219;28;1069;-70
2022/03/02 03:17:37;;;;;;;;;;;;;;;;;;5072210;28;1396;-69
2022/03/02 03:20:03;;;;;;;;;;;;;;;;;;5072037;28;743;-69
2022/03/02 03:22:30;;;;;;;;;;;;;;;;;;5072302;28;987;-69
2022/03/02 03:24:56;;;;;;;;;;;;;;;;;;5072063;28;1989;-70
2022/03/02 03:27:22;;;;;;;;;;;;;;;;;;5071970;28;1321;-69
2022/03/02 03:29:50;;;;;;;;;;;;;;;;;;5070627;28;2018;-68
2022/03/02 03:32:16;;;;;;;;;;;;;;;;;;5080138;28;1952;-69
2022/03/02 03:34:42;;;;;;;;;;;;;;;;;;5080673;28;1086;-69
2022/03/02 03:37:08;;;;;;;;;;;;;;;;;;5086315;28;1417;-69
2022/03/02 03:39:35;;;;;;;;;;;;;;;;;;5091768;28;1123;-68
2022/03/02 03:42:01;;;;;;;;;;;;;;;;;;5092223;28;781;-68
2022/03/02 03:44:27;;;;;;;;;;;;;;;;;;5091814;28;1909;-69
2022/03/02 03:46:55;;;;;;;;;;;;;;;;;;5091965;28;1301;-69
2022/03/02 03:49:21;;;;;;;;;;;;;;;;;;5091905;28;969;-69
2022/03/02 03:51:47;;;;;;;;;;;;;;;;;;5091662;28;921;-69
2022/03/02 03:54:14;;;;;;;;;;;;;;;;;;5076185;28;1502;-70
2022/03/02 03:56:40;;;;;;;;;;;;;;;;;;5071266;28;1348;-69
2022/03/02 03:59:07;;;;;;;;;;;;;;;;;;5071250;28;734;-69
2022/03/02 04:01:34;;;;;;;;;;;;;;;;;;5069775;28;948;-69
2022/03/02 04:04:02;;;;;;;;;;;;;;;;;;5071090;28;1913;-69
2022/03/02 04:06:28;;;;;;;;;;;;;;;;;;5071299;28;1426;-69
2022/03/02 04:08:54;;;;;;;;;;;;;;;;;;5071495;28;1078;-69
2022/03/02 04:11:20;;;;;;;;;;;;;;;;;;5070272;28;1043;-69
2022/03/02 04:13:47;;;;;;;;;;;;;;;;;;5071071;28;905;-68
2022/03/02 04:16:13;;;;;;;;;;;;;;;;;;5069318;28;1338;-70
2022/03/02 04:18:39;;;;;;;;;;;;;;;;;;5070987;28;968;-69
2022/03/02 04:21:08;;;;;;;;;;;;;;;;;;5070632;28;973;-69
2022/03/02 04:23:34;;;;;;;;;;;;;;;;;;5070847;28;1914;-69
2022/03/02 04:26:00;;;;;;;;;;;;;;;;;;5070879;28;1387;-69
2022/03/02 04:28:29;;;;;;;;;;;;;;;;;;5070926;28;1098;-69
2022/03/02 04:30:55;;;;;;;;;;;;;;;;;;5070523;28;964;-69
2022/03/02 04:33:21;;;;;;;;;;;;;;;;;;5070856;28;999;-69
2022/03/02 04:35:47;;;;;;;;;;;;;;;;;;5070213;28;1304;-69
2022/03/02 04:38:15;;;;;;;;;;;;;;;;;;5070708;28;968;-69
2022/03/02 04:40:41;;;;;;;;;;;;;;;;;;5069119;28;857;-69
2022/03/02 04:43:07;;;;;;;;;;;;;;;;;;5070490;28;1922;-69
2022/03/02 04:45:34;;;;;;;;;;;;;;;;;;5070618;28;1314;-69
2022/03/02 04:48:00;;;;;;;;;;;;;;;;;;5070591;28;814;-69
2022/03/02 04:50:27;;;;;;;;;;;;;;;;;;5070962;28;917;-70
2022/03/02 04:52:53;;;;;;;;;;;;;;;;;;5070480;28;1162;-68
2022/03/02 04:55:21;;;;;;;;;;;;;;;;;;5070278;28;1310;-69
2022/03/02 04:57:48;;;;;;;;;;;;;;;;;;5070649;28;984;-69
2022/03/02 05:00:15;;;;;;;;;;;;;;;;;;5070481;28;1018;-68
2022/03/02 05:02:41;;;;;;;;;;;;;;;;;;5074383;28;1590;-69
2022/03/02 05:05:08;;;;;;;;;;;;;;;;;;5084020;28;1996;-68
2022/03/02 05:07:35;;;;;;;;;;;;;;;;;;5090562;28;1261;-68
2022/03/02 05:10:01;;;;;;;;;;;;;;;;;;5087644;28;1507;-68
2022/03/02 05:12:28;;;;;;;;;;;;;;;;;;5087545;28;1524;-69
2022/03/02 05:14:55;;;;;;;;;;;;;;;;;;5087963;28;1667;-69
2022/03/02 05:17:21;;;;;;;;;;;;;;;;;;5070211;28;1408;-68
2022/03/02 05:19:47;;;;;;;;;;;;;;;;;;5070293;28;1760;-70
2022/03/02 05:22:14;;;;;;;;;;;;;;;;;;5092220;28;857;-69
2022/03/02 05:24:40;;;;;;;;;;;;;;;;;;5094111;28;1906;-69
2022/03/02 05:27:07;;;;;;;;;;;;;;;;;;5090830;28;1518;-70
2022/03/02 05:29:34;;;;;;;;;;;;;;;;;;5089198;28;1553;-68
2022/03/02 05:32:00;;;;;;;;;;;;;;;;;;5083324;28;1456;-68
2022/03/02 05:34:27;;;;;;;;;;;;;;;;;;5080050;28;1269;-69
2022/03/02 05:36:53;;;;;;;;;;;;;;;;;;5091779;28;1411;-70
2022/03/02 05:39:19;;;;;;;;;;;;;;;;;;5094406;28;1027;-70
2022/03/02 05:41:45;;;;;;;;;;;;;;;;;;5077447;28;1758;-69
2022/03/02 05:44:12;;;;;;;;;;;;;;;;;;5092507;28;1906;-68
2022/03/02 05:46:39;;;;;;;;;;;;;;;;;;5091222;28;1517;-69
2022/03/02 05:49:08;;;;;;;;;;;;;;;;;;5087719;28;1523;-69
2022/03/02 05:51:34;;;;;;;;;;;;;;;;;;5087065;28;1377;-70
2022/03/02 05:54:00;;;;;;;;;;;;;;;;;;5094456;28;1149;-70
2022/03/02 05:56:26;;;;;;;;;;;;;;;;;;5094687;28;1297;-70
2022/03/02 05:58:53;;;;;;;;;;;;;;;;;;5097660;22;3971;-72
2022/03/02 06:01:20;;;;;;;;;;;;;;;;;;5055306;28;1437;-72
2022/03/02 06:03:49;;;;;;;;;;;;;;;;;;5074091;28;1914;-72
2022/03/02 06:06:15;;;;;;;;;;;;;;;;;;5071825;28;1094;-73
2022/03/02 06:08:42;;;;;;;;;;;;;;;;;;5069767;28;1305;-73
2022/03/02 06:11:08;;;;;;;;;;;;;;;;;;5093649;28;960;-73
2022/03/02 06:13:34;;;;;;;;;;;;;;;;;;5094083;28;1090;-73
2022/03/02 06:16:02;;;;;;;;;;;;;;;;;;5093896;28;1022;-73
2022/03/02 06:18:29;;;;;;;;;;;;;;;;;;5093918;28;1333;-73
2022/03/02 06:21:00;;;;;;;;;;;;;;;;;;5093665;28;948;-72
2022/03/02 06:23:27;;;;;;;;;;;;;;;;;;5074480;28;1245;-73
2022/03/02 06:25:53;;;;;;;;;;;;;;;;;;5094014;28;1975;-73
2022/03/02 06:28:20;;;;;;;;;;;;;;;;;;5093836;28;1334;-73
2022/03/02 06:30:46;;;;;;;;;;;;;;;;;;5093512;28;877;-73
2022/03/02 06:33:14;;;;;;;;;;;;;;;;;;5074936;28;1401;-74
2022/03/02 06:35:40;;;;;;;;;;;;;;;;;;5094934;28;892;-73
2022/03/02 06:38:08;;;;;;;;;;;;;;;;;;5096837;28;1278;-74
2022/03/02 06:40:34;;;;;;;;;;;;;;;;;;5109089;28;837;-74
2022/03/02 06:43:01;;;;;;;;;;;;;;;;;;5098791;28;1070;-72
2022/03/02 06:45:28;;;;;;;;;;;;;;;;;;5076353;28;1917;-73
2022/03/02 06:47:57;;;;;;;;;;;;;;;;;;5096270;28;1490;-73
2022/03/02 06:50:25;;;;;;;;;;;;;;;;;;5107278;28;1141;-73
2022/03/02 06:52:52;;;;;;;;;;;;;;;;;;5085933;28;1222;-73
2022/03/02 06:55:20;;;;;;;;;;;;;;;;;;5093841;28;1094;-72
2022/03/02 06:57:47;;;;;;;;;;;;;;;;;;5093759;28;1447;-73
2022/03/02 07:00:16;;;;;;;;;;;;;;;;;;5093015;28;1141;-73
2022/03/02 07:02:45;;;;;;;;;;;;;;;;;;5093620;28;1153;-72
2022/03/02 07:05:11;;;;;;;;;;;;;;;;;;5093035;28;1918;-72
2022/03/02 07:07:38;;;;;;;;;;;;;;;;;;5093720;28;1341;-72
2022/03/02 07:10:05;;;;;;;;;;;;;;;;;;5093109;28;869;-73
2022/03/02 07:12:32;;;;;;;;;;;;;;;;;;5093416;28;1038;-72
2022/03/02 07:14:59;;;;;;;;;;;;;;;;;;5093387;28;750;-73
2022/03/02 07:17:26;;;;;;;;;;;;;;;;;;5092431;28;1287;-72
2022/03/02 07:19:52;;;;;;;;;;;;;;;;;;5072904;28;1093;-72
2022/03/02 07:22:21;;;;;;;;;;;;;;;;;;5054966;28;1232;-73
2022/03/02 07:24:51;;;;;;;;;;;;;;;;;;5072842;28;1940;-73
2022/03/02 07:27:18;;;;;;;;;;;;;;;;;;5073027;28;1408;-73
2022/03/02 07:29:45;;;;;;;;;;;;;;;;;;5054596;28;1108;-73
2022/03/02 07:32:12;;;;;;;;;;;;;;;;;;5072831;28;862;-73
2022/03/02 07:34:40;;;;;;;;;;;;;;;;;;5060595;28;1315;-73
2022/03/02 07:37:06;;;;;;;;;;;;;;;;;;5071906;28;1450;-73
2022/03/02 07:39:32;;;;;;;;;;;;;;;;;;5072112;28;821;-73
2022/03/02 07:41:58;;;;;;;;;;;;;;;;;;5072333;28;818;-73
2022/03/02 07:44:26;;;;;;;;;;;;;;;;;;5072556;28;1971;-73
2022/03/02 07:46:53;;;;;;;;;;;;;;;;;;5053709;28;1145;-73
2022/03/02 07:49:20;;;;;;;;;;;;;;;;;;5054464;28;1325;-73
2022/03/02 07:51:46;;;;;;;;;;;;;;;;;;5064894;28;1479;-73
2022/03/02 07:54:12;;;;;;;;;;;;;;;;;;5074206;28;1117;-73
2022/03/02 07:56:39;;;;;;;;;;;;;;;;;;5092431;28;1087;-72
2022/03/02 07:59:05;;;;;;;;;;;;;;;;;;5092015;28;1344;-72
2022/03/02 08:01:34;;;;;;;;;;;;;;;;;;5092402;28;1118;-73
2022/03/02 08:04:02;;;;;;;;;;;;;;;;;;5074313;28;1191;-73
2022/03/02 08:06:28;;;;;;;;;;;;;;;;;;5092935;28;1917;-73
2022/03/02 08:08:55;;;;;;;;;;;;;;;;;;5092621;28;1388;-72
2022/03/02 08:11:21;;;;;;;;;;;;;;;;;;5091276;28;1115;-72
2022/03/02 08:13:47;;;;;;;;;;;;;;;;;;5073838;28;1165;-73
2022/03/02 08:16:13;;;;;;;;;;;;;;;;;;5073146;28;1184;-73
2022/03/02 08:18:40;;;;;;;;;;;;;;;;;;5091724;28;1269;-73
2022/03/02 08:21:07;;;;;;;;;;;;;;;;;;5091384;28;1036;-71
2022/03/02 08:23:39;;;;;;;;;;;;;;;;;;5092458;28;1071;-72
2022/03/02 08:26:05;;;;;;;;;;;;;;;;;;5092171;28;1910;-72
2022/03/02 08:28:33;;;;;;;;;;;;;;;;;;5076503;28;1536;-72
2022/03/02 08:31:03;;;;;;;;;;;;;;;;;;5074504;28;1274;-72
2022/03/02 08:33:31;;;;;;;;;;;;;;;;;;5092334;28;1075;-72
2022/03/02 08:35:58;;;;;;;;;;;;;;;;;;5073580;28;1108;-72
2022/03/02 08:38:25;;;;;;;;;;;;;;;;;;5091575;28;1313;-72
2022/03/02 08:40:52;;;;;;;;;;;;;;;;;;5090753;28;905;-73
2022/03/02 08:43:18;;;;;;;;;;;;;;;;;;5073439;28;1353;-73
2022/03/02 08:45:44;;;;;;;;;;;;;;;;;;5091306;28;1973;-73
2022/03/02 08:48:11;;;;;;;;;;;;;;;;;;5091169;28;1337;-73
2022/03/02 08:50:37;;;;;;;;;;;;;;;;;;5090731;28;1168;-73
2022/03/02 08:53:03;;;;;;;;;;;;;;;;;;5091279;28;786;-72
2022/03/02 08:55:32;;;;;;;;;;;;;;;;;;5093359;28;856;-73
2022/03/02 08:57:58;;;;;;;;;;;;;;;;;;5090929;28;1341;-73
2022/03/02 09:00:24;;;;;;;;;;;;;;;;;;5090845;28;1114;-73
2022/03/02 09:02:51;;;;;;;;;;;;;;;;;;5091073;28;1011;-73
2022/03/02 09:05:17;;;;;;;;;;;;;;;;;;5090952;28;1969;-73
2022/03/02 09:07:44;;;;;;;;;;;;;;;;;;5090679;28;1368;-73
2022/03/02 09:10:10;;;;;;;;;;;;;;;;;;5090388;28;887;-73
2022/03/02 09:12:38;;;;;;;;;;;;;;;;;;5073197;28;1361;-73
2022/03/02 09:15:06;;;;;;;;;;;;;;;;;;5095654;28;921;-74
2022/03/02 09:17:32;;;;;;;;;;;;;;;;;;5091505;28;1353;-73
2022/03/02 09:19:59;;;;;;;;;;;;;;;;;;5090434;28;1047;-73
2022/03/02 09:22:26;;;;;;;;;;;;;;;;;;5090704;28;991;-73
2022/03/02 09:24:52;;;;;;;;;;;;;;;;;;5090670;28;1910;-73
2022/03/02 09:27:18;;;;;;;;;;;;;;;;;;5072415;28;1326;-73
2022/03/02 09:29:46;;;;;;;;;;;;;;;;;;5090179;28;1074;-73
2022/03/02 09:32:13;;;;;;;;;;;;;;;;;;5090471;28;1066;-73
2022/03/02 09:34:40;;;;;;;;;;;;;;;;;;5084008;28;2113;-74
2022/03/02 09:37:06;;;;;;;;;;;;;;;;;;5088432;28;1326;-73
2022/03/02 09:39:32;;;;;;;;;;;;;;;;;;5090252;28;1484;-72
2022/03/02 09:42:00;;;;;;;;;;;;;;;;;;5090057;28;1125;-74
2022/03/02 09:44:29;;;;;;;;;;;;;;;;;;5090394;28;1533;-73
2022/03/02 09:46:57;;;;;;;;;;;;;;;;;;5089868;28;1972;-74
2022/03/02 09:49:24;;;;;;;;;;;;;;;;;;5090642;28;1380;-73
2022/03/02 09:51:51;;;;;;;;;;;;;;;;;;5090499;28;1110;-73
2022/03/02 09:54:17;;;;;;;;;;;;;;;;;;5090906;28;904;-74
2022/03/02 09:56:43;;;;;;;;;;;;;;;;;;5090710;28;1977;-74
2022/03/02 09:59:10;;;;;;;;;;;;;;;;;;5072011;28;1383;-74
2022/03/02 10:01:38;;;;;;;;;;;;;;;;;;5090582;28;1114;-74
2022/03/02 10:04:13;;;;;;;;;;;;;;;;;;5090865;28;845;-74
2022/03/02 10:06:39;;;;;;;;;;;;;;;;;;5090998;28;802;-74
2022/03/02 10:09:05;;;;;;;;;;;;;;;;;;5091652;28;1309;-73
2022/03/02 10:11:31;;;;;;;;;;;;;;;;;;5093789;28;1034;-74
2022/03/02 10:13:58;;;;;;;;;;;;;;;;;;5094758;28;1169;-74
2022/03/02 10:16:25;;;;;;;;;;;;;;;;;;5075656;28;1926;-73
2022/03/02 10:18:52;;;;;;;;;;;;;;;;;;5099376;28;1340;-72
2022/03/02 10:21:20;;;;;;;;;;;;;;;;;;5093921;28;797;-73
2022/03/02 10:23:46;;;;;;;;;;;;;;;;;;5093700;28;1082;-72
2022/03/02 10:26:15;;;;;;;;;;;;;;;;;;5093949;28;991;-73
2022/03/02 10:28:45;;;;;;;;;;;;;;;;;;5093654;28;1335;-72
2022/03/02 10:31:20;;;;;;;;;;;;;;;;;;5093526;28;864;-73
2022/03/02 10:33:46;;;;;;;;;;;;;;;;;;5093503;28;1078;-72
2022/03/02 10:36:13;;;;;;;;;;;;;;;;;;5093572;28;1906;-72
2022/03/02 10:38:44;;;;;;;;;;;;;;;;;;5093321;28;1323;-73
2022/03/02 10:41:10;;;;;;;;;;;;;;;;;;5075315;28;1230;-73
2022/03/02 10:43:40;;;;;;;;;;;;;;;;;;5075271;28;1292;-73
2022/03/02 10:46:06;;;;;;;;;;;;;;;;;;5093946;28;1074;-73
2022/03/02 10:48:38;;;;;;;;;;;;;;;;;;5093538;28;1375;-73
2022/03/02 10:51:04;;;;;;;;;;;;;;;;;;5093411;28;1080;-74
2022/03/02 10:53:31;;;;;;;;;;;;;;;;;;5093070;28;888;-74
2022/03/02 10:55:59;;;;;;;;;;;;;;;;;;5093258;28;1973;-73
2022/03/02 10:58:27;;;;;;;;;;;;;;;;;;5093162;28;1319;-72
2022/03/02 11:00:54;;;;;;;;;;;;;;;;;;5093097;28;952;-73
2022/03/02 11:03:20;;;;;;;;;;;;;;;;;;5093263;28;937;-74
2022/03/02 11:05:46;;;;;;;;;;;;;;;;;;5075103;28;1241;-74
2022/03/02 11:08:13;;;;;;;;;;;;;;;;;;5093104;28;1400;-73
2022/03/02 11:10:40;;;;;;;;;;;;;;;;;;5092682;28;1137;-72
2022/03/02 11:13:11;;;;;;;;;;;;;;;;;;5092904;28;872;-73
2022/03/02 11:15:48;;;;;;;;;;;;;;;;;;5093091;28;1909;-73
2022/03/02 11:18:16;;;;;;;;;;;;;;;;;;5093044;28;1336;-74
2022/03/02 11:20:51;;;;;;;;;;;;;;;;;;5092640;28;1044;-74
2022/03/02 11:23:21;;;;;;;;;;;;;;;;;;5093014;28;1023;-73
2022/03/02 11:25:48;;;;;;;;;;;;;;;;;;5092864;28;1125;-74
2022/03/02 11:28:17;;;;;;;;;;;;;;;;;;5092938;28;1308;-73
2022/03/02 11:30:47;;;;;;;;;;;;;;;;;;5074324;28;960;-73
2022/03/02 11:33:13;;;;;;;;;;;;;;;;;;5074870;28;1381;-73
2022/03/02 11:35:40;;;;;;;;;;;;;;;;;;5092414;28;1909;-73
2022/03/02 11:38:06;;;;;;;;;;;;;;;;;;5092762;28;1432;-73
2022/03/02 11:40:39;;;;;;;;;;;;;;;;;;5095550;28;971;-73
2022/03/02 11:43:13;;;;;;;;;;;;;;;;;;5074069;28;932;-74
2022/03/02 11:45:40;;;;;;;;;;;;;;;;;;5092249;28;1074;-74
2022/03/02 11:48:09;;;;;;;;;;;;;;;;;;5091607;28;1467;-73
2022/03/02 11:50:36;;;;;;;;;;;;;;;;;;5089805;28;1519;-74
2022/03/02 11:53:03;;;;;;;;;;;;;;;;;;5092310;28;1150;-74
2022/03/02 11:55:29;;;;;;;;;;;;;;;;;;5091453;28;1980;-73
2022/03/02 11:57:56;;;;;;;;;;;;;;;;;;5091968;28;1398;-74
2022/03/02 12:00:23;;;;;;;;;;;;;;;;;;5100200;22;1973;-70
2022/03/02 12:02:52;;;;;;;;;;;;;;;;;;5071506;28;805;-73
2022/03/02 12:05:19;;;;;;;;;;;;;;;;;;5071155;28;1090;-71
2022/03/02 12:07:46;;;;;;;;;;;;;;;;;;5071524;28;1083;-72
2022/03/02 12:10:20;;;;;;;;;;;;;;;;;;5079726;28;1325;-71
2022/03/02 12:12:46;;;;;;;;;;;;;;;;;;5091632;28;897;-72
2022/03/02 12:15:13;;;;;;;;;;;;;;;;;;5072782;28;1382;-74
2022/03/02 12:17:39;;;;;;;;;;;;;;;;;;5091251;28;1981;-72
2022/03/02 12:20:09;;;;;;;;;;;;;;;;;;5072978;28;1454;-72
2022/03/02 12:22:36;;;;;;;;;;;;;;;;;;5091126;28;1147;-74
2022/03/02 12:25:02;;;;;;;;;;;;;;;;;;5072980;28;1494;-73
2022/03/02 12:27:29;;;;;;;;;;;;;;;;;;5091243;28;853;-74
2022/03/02 12:29:56;;;;;;;;;;;;;;;;;;5091308;28;1314;-72
2022/03/02 12:32:26;;;;;;;;;;;;;;;;;;5090797;28;1066;-73
2022/03/02 12:34:52;;;;;;;;;;;;;;;;;;5091300;28;952;-72
2022/03/02 12:37:20;;;;;;;;;;;;;;;;;;5090818;28;1910;-72
2022/03/02 12:39:47;;;;;;;;;;;;;;;;;;5090927;28;1284;-73
2022/03/02 12:42:14;;;;;;;;;;;;;;;;;;5091068;28;1086;-73
2022/03/02 12:44:42;;;;;;;;;;;;;;;;;;5091310;28;1137;-73
2022/03/02 12:47:09;;;;;;;;;;;;;;;;;;5091903;28;972;-73
2022/03/02 12:49:35;;;;;;;;;;;;;;;;;;5090948;28;1336;-72
2022/03/02 12:52:03;;;;;;;;;;;;;;;;;;5091027;28;1158;-73
2022/03/02 12:54:32;;;;;;;;;;;;;;;;;;5091360;28;1130;-73
2022/03/02 12:57:00;;;;;;;;;;;;;;;;;;5090916;28;1911;-73
2022/03/02 12:59:27;;;;;;;;;;;;;;;;;;5091354;28;1459;-73
2022/03/02 13:01:53;;;;;;;;;;;;;;;;;;5073683;28;1341;-73
2022/03/02 13:04:22;;;;;;;;;;;;;;;;;;5090896;28;897;-72
2022/03/02 13:06:49;;;;;;;;;;;;;;;;;;5090872;28;840;-72
2022/03/02 13:09:16;;;;;;;;;;;;;;;;;;5090560;28;1415;-73
2022/03/02 13:11:44;;;;;;;;;;;;;;;;;;5091122;28;1098;-73
2022/03/02 13:14:16;;;;;;;;;;;;;;;;;;5090624;28;939;-72
2022/03/02 13:16:42;;;;;;;;;;;;;;;;;;5090431;28;1976;-71
2022/03/02 13:19:15;;;;;;;;;;;;;;;;;;5091205;28;1004;-72
2022/03/02 13:21:41;;;;;;;;;;;;;;;;;;5090494;28;1099;-72
2022/03/02 13:24:10;;;;;;;;;;;;;;;;;;5090820;28;804;-72
2022/03/02 13:26:37;;;;;;;;;;;;;;;;;;5090622;28;1101;-72
2022/03/02 13:29:06;;;;;;;;;;;;;;;;;;5090758;28;967;-72
2022/03/02 13:31:47;;;;;;;;;;;;;;;;;;5089942;28;1401;-72
2022/03/02 13:34:16;;;;;;;;;;;;;;;;;;5089849;28;1668;-73
2022/03/02 13:36:43;;;;;;;;;;;;;;;;;;5071797;28;1969;-73
2022/03/02 13:39:10;;;;;;;;;;;;;;;;;;5090186;28;1082;-73
2022/03/02 13:41:40;;;;;;;;;;;;;;;;;;5071778;28;1348;-74
2022/03/02 13:44:21;;;;;;;;;;;;;;;;;;5091562;28;1067;-73
2022/03/02 13:47:00;;;;;;;;;;;;;;;;;;5094174;28;1071;-73
2022/03/02 13:49:26;;;;;;;;;;;;;;;;;;5093644;28;1360;-74
2022/03/02 13:51:52;;;;;;;;;;;;;;;;;;5096428;28;1469;-73
2022/03/02 13:54:25;;;;;;;;;;;;;;;;;;5075666;28;1450;-72
2022/03/02 13:56:51;;;;;;;;;;;;;;;;;;5094063;28;1921;-73
2022/03/02 13:59:18;;;;;;;;;;;;;;;;;;5075709;28;1343;-73
2022/03/02 14:01:46;;;;;;;;;;;;;;;;;;5074843;28;1300;-74
2022/03/02 14:04:18;;;;;;;;;;;;;;;;;;5093564;28;1270;-74
2022/03/02 14:06:44;;;;;;;;;;;;;;;;;;5093686;28;1345;-74
2022/03/02 14:09:11;;;;;;;;;;;;;;;;;;5075097;28;1266;-73
2022/03/02 14:11:38;;;;;;;;;;;;;;;;;;5074800;28;1356;-74
2022/03/02 14:14:06;;;;;;;;;;;;;;;;;;5055886;28;1517;-73
2022/03/02 14:16:32;;;;;;;;;;;;;;;;;;5055837;28;1977;-74
2022/03/02 14:19:02;;;;;;;;;;;;;;;;;;5075037;28;751;-74
2022/03/02 14:21:29;;;;;;;;;;;;;;;;;;5073170;28;1402;-72
2022/03/02 14:23:56;;;;;;;;;;;;;;;;;;5073779;28;814;-74
2022/03/02 14:26:22;;;;;;;;;;;;;;;;;;5073381;28;1094;-74
2022/03/02 14:28:49;;;;;;;;;;;;;;;;;;5055240;28;1168;-74
2022/03/02 14:31:15;;;;;;;;;;;;;;;;;;5072923;28;1287;-74
2022/03/02 14:33:41;;;;;;;;;;;;;;;;;;5073119;28;921;-73
2022/03/02 14:36:16;;;;;;;;;;;;;;;;;;5054856;28;1351;-74
2022/03/02 14:38:43;;;;;;;;;;;;;;;;;;5073105;28;1078;-74
2022/03/02 14:41:09;;;;;;;;;;;;;;;;;;5072256;28;1302;-74
2022/03/02 14:43:36;;;;;;;;;;;;;;;;;;5072793;28;1082;-73
2022/03/02 14:46:02;;;;;;;;;;;;;;;;;;5072490;28;855;-74
2022/03/02 14:48:30;;;;;;;;;;;;;;;;;;5054610;28;1187;-74
2022/03/02 14:50:57;;;;;;;;;;;;;;;;;;5072462;28;1543;-73
2022/03/02 14:53:25;;;;;;;;;;;;;;;;;;5072777;28;802;-73
2022/03/02 14:55:54;;;;;;;;;;;;;;;;;;5072214;28;1137;-73
2022/03/02 14:58:21;;;;;;;;;;;;;;;;;;5072314;28;1977;-74
2022/03/02 15:00:48;;;;;;;;;;;;;;;;;;5072036;28;1318;-74
2022/03/02 15:03:16;;;;;;;;;;;;;;;;;;5072602;28;1091;-74
2022/03/02 15:05:49;;;;;;;;;;;;;;;;;;5072018;28;1099;-74
2022/03/02 15:08:16;;;;;;;;;;;;;;;;;;5072227;28;1007;-73
2022/03/02 15:10:42;;;;;;;;;;;;;;;;;;5071569;28;1341;-73
2022/03/02 15:15:53;;;;;;;;;;;;;;;;;;5072426;28;912;-74
2022/03/02 15:18:19;;;;;;;;;;;;;;;;;;5071947;28;1913;-73
2022/03/02 15:20:49;;;;;;;;;;;;;;;;;;5072118;28;1418;-71
2022/03/02 15:23:15;;;;;;;;;;;;;;;;;;5091815;28;1117;-73
2022/03/02 15:25:41;;;;;;;;;;;;;;;;;;5073988;28;1441;-75
2022/03/02 15:28:08;;;;;;;;;;;;;;;;;;5091140;28;836;-75
2022/03/02 15:30:37;;;;;;;;;;;;;;;;;;5091817;28;1322;-75
2022/03/02 15:33:04;;;;;;;;;;;;;;;;;;5072097;28;1741;-74
2022/03/02 15:35:31;;;;;;;;;;;;;;;;;;5074393;28;1981;-74
2022/03/02 15:37:57;;;;;;;;;;;;;;;;;;5091332;28;1910;-74
2022/03/02 15:40:24;;;;;;;;;;;;;;;;;;5073171;28;1342;-73
2022/03/02 15:42:51;;;;;;;;;;;;;;;;;;5091912;28;1086;-73
2022/03/02 15:45:18;;;;;;;;;;;;;;;;;;5091916;28;762;-73
2022/03/02 15:47:49;;;;;;;;;;;;;;;;;;5093610;28;1424;-73
2022/03/02 15:50:16;;;;;;;;;;;;;;;;;;5111776;28;1317;-73
2022/03/02 15:52:42;;;;;;;;;;;;;;;;;;5107103;28;1232;-72
2022/03/02 15:55:09;;;;;;;;;;;;;;;;;;5091030;28;972;-72
2022/03/02 15:57:36;;;;;;;;;;;;;;;;;;5091554;28;1967;-73
2022/03/02 16:00:09;;;;;;;;;;;;;;;;;;5090949;28;1525;-74
2022/03/02 16:02:38;;;;;;;;;;;;;;;;;;5089170;28;1052;-74
2022/03/02 16:05:08;;;;;;;;;;;;;;;;;;5091379;28;955;-73
2022/03/02 16:07:34;;;;;;;;;;;;;;;;;;5088107;28;865;-73
2022/03/02 16:10:00;;;;;;;;;;;;;;;;;;5091165;28;1341;-73
2022/03/02 16:12:43;;;;;;;;;;;;;;;;;;5091444;28;707;-73
2022/03/02 16:15:09;;;;;;;;;;;;;;;;;;5091173;28;1129;-73
2022/03/02 16:17:45;;;;;;;;;;;;;;;;;;5091318;28;1964;-72
2022/03/02 16:20:14;;;;;;;;;;;;;;;;;;5090693;28;1432;-73
2022/03/02 16:22:41;;;;;;;;;;;;;;;;;;5091428;28;1070;-73
2022/03/02 16:25:20;;;;;;;;;;;;;;;;;;5072872;28;1260;-73
2022/03/02 16:28:01;;;;;;;;;;;;;;;;;;5091278;28;1138;-73
2022/03/02 16:30:28;;;;;;;;;;;;;;;;;;5091032;28;1438;-73
2022/03/02 16:32:55;;;;;;;;;;;;;;;;;;5092640;28;810;-74
2022/03/02 16:35:23;;;;;;;;;;;;;;;;;;5093888;28;893;-74
2022/03/02 16:37:50;;;;;;;;;;;;;;;;;;5092464;28;1923;-74
2022/03/02 16:40:16;;;;;;;;;;;;;;;;;;5090462;28;1407;-74
2022/03/02 16:42:43;;;;;;;;;;;;;;;;;;5091059;28;1122;-74
2022/03/02 16:45:11;;;;;;;;;;;;;;;;;;5090608;28;1059;-74
2022/03/02 16:47:37;;;;;;;;;;;;;;;;;;5090066;28;1149;-71
2022/03/02 16:50:05;;;;;;;;;;;;;;;;;;5089506;28;1323;-70
2022/03/02 16:52:33;;;;;;;;;;;;;;;;;;5072637;28;1019;-73
2022/03/02 16:54:59;;;;;;;;;;;;;;;;;;5090421;28;1146;-73
2022/03/02 16:57:26;;;;;;;;;;;;;;;;;;5090573;28;1965;-73
2022/03/02 16:59:53;;;;;;;;;;;;;;;;;;5072096;28;1353;-74
2022/03/02 17:02:19;;;;;;;;;;;;;;;;;;5092246;28;1138;-73
2022/03/02 17:04:45;;;;;;;;;;;;;;;;;;5093039;28;1074;-74
2022/03/02 17:07:11;;;;;;;;;;;;;;;;;;5082655;28;1541;-72
2022/03/02 17:09:39;;;;;;;;;;;;;;;;;;5067717;28;1417;-74